KBWIKGAI

Guest
Details From KBWI - Baltimore Washington Intl
To KGAI - Montgomery Co Airpark
Flight Number -
Tags Routegen Generated
Created
Modified
Stats Distance 23 nm / 43 km
Max Altitude 100 ft / 30 m
Waypoints 5
Social Downloads 0
Likes 0
Share VATSIM

Download

Looking for another format? Having issues loading an existing format? Contact us
Advertisement - Login to hide

Notes

Departing runway 27 KBWI. Arriving runway 12 KGAI.

Route

KBWI +39.18_-076.78 +39.15_-076.93 +39.12_-077.09 KGAI

ID Type Via Altitude Latitude Longitude Leg Dist Tot Dist Heading (true) Name
O KBWI APT - 0 ft / 0 m 39.17479˚ -76.69033˚ - 0 nm - -
+39.18_-076.78 LATLON - 100 ft / 30 m 39.18009˚ -76.78343˚ 4 nm 4 nm 274° / 274° -
+39.15_-076.93 LATLON - 100 ft / 30 m 39.15042˚ -76.93477˚ 7 nm 11 nm 256° / 256° -
+39.12_-077.09 LATLON - 100 ft / 30 m 39.12076˚ -77.08612˚ 7 nm 18 nm 256° / 256° -
O KGAI APT - 0 ft / 0 m 39.16484˚ -77.16011˚ 4 nm 23 nm 308° / 308° -

Altitude Profile

Advertisement - Login to hide

KBWI

Details ICAO KBWI (BWI)
Name Baltimore Washington Intl
Region United States
Timezone America/New_York (UTC-5.0)
Stats Elevation 146 ft / 45 m (AMSL)
Location 39.176013° -76.666823°
Runways 4
Magnetic Variation 11.107° W

METAR

KBWI 172154Z 06003KT 10SM FEW070 SCT090 BKN110 OVC140 06/00 A3019 RMK AO2 SLP225 VIRGA NE-OHD-SW T00560000

Decode

TAF

TAF AMD KBWI 172030Z 1721/1824 12003KT P6SM BKN250 FM180600 VRB03KT P6SM BKN060 FM181400 VRB03KT P6SM SCT050 BKN200 FM182300 23004KT P6SM BKN050

Decode

Departure Runways

ID Width Length Bearing (true) Bearing (mag) Surface Threshold Offset Overrun Length
04 151 ft / 46 m 6,005 ft / 1,830 m 33.09° 44.20° Asphalt 0 ft / 0 m 0 ft / 0 m
10 200 ft / 61 m 10,880 ft / 3,316 m 94.21° 105.32° Asphalt 751 ft / 229 m 400 ft / 122 m
15L 98 ft / 30 m 5,002 ft / 1,525 m 144.33° 155.44° Asphalt 0 ft / 0 m 0 ft / 0 m
15R 151 ft / 46 m 9,506 ft / 2,897 m 144.31° 155.42° Asphalt 0 ft / 0 m 98 ft / 30 m
22 151 ft / 46 m 6,005 ft / 1,830 m 213.09° 224.20° Asphalt 0 ft / 0 m 0 ft / 0 m
28 200 ft / 61 m 10,880 ft / 3,316 m 274.23° 285.34° Asphalt 699 ft / 213 m 400 ft / 122 m
33L 151 ft / 46 m 9,506 ft / 2,897 m 324.33° 335.44° Asphalt 0 ft / 0 m 75 ft / 23 m
33R 98 ft / 30 m 5,002 ft / 1,525 m 324.33° 335.44° Asphalt 0 ft / 0 m 0 ft / 0 m

KGAI

Details ICAO KGAI (GAI)
Name MONTGOMERY CO AIRPARK
Region United States
Timezone America/New_York (UTC-5.0)
Stats Elevation 539 ft / 164 m (AMSL)
Location 39.168286° -77.165966°
Runways 1
Magnetic Variation 10.813° W

METAR

KGAI 172156Z AUTO 00000KT 10SM BKN110 07/M02 A3018 RMK AO2 SLP251 T00721017

Decode

TAF

Not found

Destination Runways

ID Width Length Bearing (true) Bearing (mag) Surface Threshold Offset Overrun Length
14 75 ft / 23 m 4,233 ft / 1,290 m 127.52° 138.33° Asphalt 0 ft / 0 m 0 ft / 0 m
32 75 ft / 23 m 4,233 ft / 1,290 m 307.53° 318.34° Asphalt 0 ft / 0 m 0 ft / 0 m

Popular Alternatives